Terminal Aerodrome Forecast
Issued by NWS

Home | Current Version | Previous Version | Graphics & Text | Print | Product List | Glossary On
Versions: 1 2 3 4 5 6 7 8 9 10 11 12 13 14 15 16 17 18 19 20
309
FTUS43 KICT 181400 AAA
TAFHUT
TAF AMD
KHUT 181400Z 1814/1912 13009KT 4SM BR BKN003 OVC014
      TEMPO 1814/1816 6SM BR SCT003 BKN014
     FM181600 16010KT P6SM BKN030
     FM181800 19011KT P6SM BKN090
     FM190900 16009KT P6SM FEW130 WS020/20035KT=

USA.gov is the U.S. government's official web portal to all federal, state and local government web resources and services.